Weather at St Charles Airport [CLOSED]

Public forecast

Using degrees Fahrenheit for public forecast. Weather courtesy of forecast.io.

Closest aviation weather report (METAR) to St Charles Airport

Closest report is St Charles County Smartt Airport, 5.9 nm (10.9 km) NE. Retrieved 2022/08/09 14:54 UTC (1 hour ago):

KSET 091454Z AUTO 35004KT 7SM OVC007 23/20 A3008 RMK AO2 SLP180 T02280200 51018

Closest aviation forecast (TAF) to St Charles Airport

Closest forecast is St Louis Lambert International Airport, 8.6 nm (15.8 km) SE. Retrieved 2022/08/09 12:36 UTC (3 hours ago):

TAF KSTL 091134Z 0912/1018 01007KT P6SM BKN007 BKN100 FM091400 03003KT P6SM SCT007 BKN025 FM092000 03006KT P6SM BKN035 FM100200 06005KT P6SM BKN250